Time;durP1;ratioP1;P1;durP2;ratioP2;P2;SDS_P1;SDS_P2;PMS_P1;PMS_P2;Temp;Humidity;BMP_temperature;BMP_pressure;BME280_temperature;BME280_humidity;BME280_pressure;Samples;Min_cycle;Max_cycle;Signal;HPM_P1;HPM_P2
2021/01/01 00:02:19;;;;;;;1.92;1.83;;;;;;;;;;5067751;28;20858;-46
2021/01/01 00:04:45;;;;;;;2.70;2.20;;;;;;;;;;5053473;28;20267;-46
2021/01/01 00:07:11;;;;;;;2.20;2.00;;;;;;;;;;5055324;28;20269;-46
2021/01/01 00:09:37;;;;;;;2.10;1.70;;;;;;;;;;5072688;28;20204;-46
2021/01/01 00:12:03;;;;;;;2.00;1.85;;;;;;;;;;5074400;28;20189;-46
2021/01/01 00:14:29;;;;;;;2.08;1.88;;;;;;;;;;5073056;28;20218;-46
2021/01/01 00:16:55;;;;;;;2.00;1.80;;;;;;;;;;5068098;28;20265;-46
2021/01/01 00:19:21;;;;;;;1.92;1.83;;;;;;;;;;5062543;28;20187;-46
2021/01/01 00:21:47;;;;;;;2.00;1.90;;;;;;;;;;5067882;28;20872;-46
2021/01/01 00:24:13;;;;;;;1.80;1.70;;;;;;;;;;5073652;28;20581;-46
2021/01/01 00:26:39;;;;;;;2.15;1.77;;;;;;;;;;5067514;28;20233;-47
2021/01/01 00:29:06;;;;;;;2.00;1.90;;;;;;;;;;5074248;28;20266;-46
2021/01/01 00:31:32;;;;;;;2.05;1.80;;;;;;;;;;5060799;28;20638;-47
2021/01/01 00:33:58;;;;;;;1.48;1.38;;;;;;;;;;5053546;28;20512;-47
2021/01/01 00:36:24;;;;;;;1.80;1.70;;;;;;;;;;5073883;28;20186;-47
2021/01/01 00:38:52;;;;;;;2.15;1.95;;;;;;;;;;5073901;28;20184;-47
2021/01/01 00:41:25;;;;;;;2.05;1.95;;;;;;;;;;5074009;28;20189;-47
2021/01/01 00:43:52;;;;;;;2.20;2.00;;;;;;;;;;5064176;28;20197;-47
2021/01/01 00:46:18;;;;;;;1.92;1.83;;;;;;;;;;5063382;28;20189;-47
2021/01/01 00:48:44;;;;;;;1.70;1.60;;;;;;;;;;5071907;28;20424;-47
2021/01/01 00:51:10;;;;;;;2.15;1.95;;;;;;;;;;5063817;28;20197;-48
2021/01/01 00:53:36;;;;;;;1.70;1.60;;;;;;;;;;5053102;28;20195;-47
2021/01/01 00:56:02;;;;;;;2.00;1.80;;;;;;;;;;5054430;28;20201;-47
2021/01/01 00:58:28;;;;;;;1.90;1.80;;;;;;;;;;5053291;28;20252;-47
2021/01/01 01:00:54;;;;;;;1.70;1.60;;;;;;;;;;5056661;28;20195;-46
2021/01/01 01:03:20;;;;;;;1.92;1.83;;;;;;;;;;5072830;28;20189;-47
2021/01/01 01:05:46;;;;;;;1.73;1.63;;;;;;;;;;5070807;28;20178;-47
2021/01/01 01:08:12;;;;;;;1.80;1.70;;;;;;;;;;5073907;28;20205;-47
2021/01/01 01:10:38;;;;;;;1.80;1.70;;;;;;;;;;5071709;28;20696;-46
2021/01/01 01:13:04;;;;;;;2.55;1.77;;;;;;;;;;5073775;28;20260;-47
2021/01/01 01:15:30;;;;;;;1.70;1.60;;;;;;;;;;5069876;28;20181;-47
2021/01/01 01:17:56;;;;;;;1.73;1.60;;;;;;;;;;5068854;28;20248;-47
2021/01/01 01:20:22;;;;;;;2.10;1.90;;;;;;;;;;5069902;28;20194;-47
2021/01/01 01:22:48;;;;;;;3.05;1.80;;;;;;;;;;5056501;28;20220;-47
2021/01/01 01:25:14;;;;;;;2.85;1.60;;;;;;;;;;5070644;28;20569;-47
2021/01/01 01:27:40;;;;;;;2.20;1.58;;;;;;;;;;5072339;28;20307;-47
2021/01/01 01:30:06;;;;;;;3.50;1.88;;;;;;;;;;5072809;28;20562;-47
2021/01/01 01:32:32;;;;;;;2.05;1.50;;;;;;;;;;5052960;28;20175;-47
2021/01/01 01:34:58;;;;;;;2.38;1.80;;;;;;;;;;5059866;28;20182;-47
2021/01/01 01:37:24;;;;;;;4.70;1.80;;;;;;;;;;5056799;28;20184;-47
2021/01/01 01:39:50;;;;;;;1.70;1.60;;;;;;;;;;5053228;28;20171;-47
2021/01/01 01:42:16;;;;;;;4.13;1.95;;;;;;;;;;5052928;28;20183;-47
2021/01/01 01:44:42;;;;;;;1.60;1.50;;;;;;;;;;5052269;28;20229;-47
2021/01/01 01:47:14;;;;;;;1.77;1.67;;;;;;;;;;5064423;28;20186;-47
2021/01/01 01:49:40;;;;;;;2.80;1.58;;;;;;;;;;5075910;28;20185;-47
2021/01/01 01:52:07;;;;;;;2.83;1.80;;;;;;;;;;5070057;28;20194;-47
2021/01/01 01:54:33;;;;;;;3.42;1.63;;;;;;;;;;5076472;28;20600;-47
2021/01/01 01:56:59;;;;;;;1.80;1.70;;;;;;;;;;5074488;28;20197;-47
2021/01/01 01:59:25;;;;;;;2.42;1.65;;;;;;;;;;5076435;28;20269;-47
2021/01/01 02:01:51;;;;;;;2.83;1.70;;;;;;;;;;5076228;28;20609;-47
2021/01/01 02:04:17;;;;;;;3.65;1.83;;;;;;;;;;5076551;28;20182;-47
2021/01/01 02:06:43;;;;;;;1.70;1.60;;;;;;;;;;5064475;28;20179;-47
2021/01/01 02:09:12;;;;;;;1.85;1.45;;;;;;;;;;5073774;28;20895;-47
2021/01/01 02:11:38;;;;;;;1.50;1.40;;;;;;;;;;5075228;28;20273;-47
2021/01/01 02:14:06;;;;;;;2.22;1.70;;;;;;;;;;5075560;28;20721;-47
2021/01/01 02:16:37;;;;;;;1.98;1.50;;;;;;;;;;5075357;28;20175;-47
2021/01/01 02:19:03;;;;;;;4.13;1.77;;;;;;;;;;5076302;28;20170;-47
2021/01/01 02:21:29;;;;;;;3.05;1.42;;;;;;;;;;5074950;28;20204;-48
2021/01/01 02:23:55;;;;;;;3.25;1.60;;;;;;;;;;5075856;28;20178;-47
2021/01/01 02:26:21;;;;;;;2.90;1.52;;;;;;;;;;5065008;28;20581;-46
2021/01/01 02:28:47;;;;;;;2.00;1.42;;;;;;;;;;5055785;28;20186;-47
2021/01/01 02:31:13;;;;;;;1.88;1.60;;;;;;;;;;5074428;28;20185;-47
2021/01/01 02:33:39;;;;;;;4.00;1.70;;;;;;;;;;5075794;28;20286;-47
2021/01/01 02:36:05;;;;;;;1.83;1.30;;;;;;;;;;5075265;28;20194;-47
2021/01/01 02:38:31;;;;;;;2.03;1.70;;;;;;;;;;5075486;28;20189;-47
2021/01/01 02:40:57;;;;;;;2.72;1.40;;;;;;;;;;5068181;28;20191;-47
2021/01/01 02:43:23;;;;;;;3.00;1.60;;;;;;;;;;5055967;28;20240;-47
2021/01/01 02:45:49;;;;;;;2.00;1.48;;;;;;;;;;5067585;28;20195;-47
2021/01/01 02:48:19;;;;;;;2.85;1.50;;;;;;;;;;5069204;28;20218;-47
2021/01/01 02:50:46;;;;;;;2.22;1.63;;;;;;;;;;5074505;28;20190;-47
2021/01/01 02:53:12;;;;;;;1.88;1.55;;;;;;;;;;5075529;28;20477;-47
2021/01/01 02:55:38;;;;;;;1.67;1.58;;;;;;;;;;5073369;28;20231;-47
2021/01/01 02:58:05;;;;;;;1.45;1.35;;;;;;;;;;5075383;28;20235;-47
2021/01/01 03:00:32;;;;;;;1.38;1.27;;;;;;;;;;5070091;28;20508;-47
2021/01/01 03:02:58;;;;;;;1.98;1.45;;;;;;;;;;5055722;28;20463;-47
2021/01/01 03:05:24;;;;;;;1.50;1.40;;;;;;;;;;5067982;28;20175;-47
2021/01/01 03:07:51;;;;;;;1.70;1.60;;;;;;;;;;5074739;28;20183;-47
2021/01/01 03:10:18;;;;;;;1.92;1.50;;;;;;;;;;5074930;28;20190;-47
2021/01/01 03:12:44;;;;;;;1.42;1.27;;;;;;;;;;5075209;28;20562;-47
2021/01/01 03:15:10;;;;;;;1.20;1.10;;;;;;;;;;5073935;28;20209;-47
2021/01/01 03:17:36;;;;;;;1.65;1.50;;;;;;;;;;5073735;28;20182;-47
2021/01/01 03:20:03;;;;;;;2.33;1.60;;;;;;;;;;5074160;28;20466;-49
2021/01/01 03:22:29;;;;;;;1.95;1.73;;;;;;;;;;5054689;28;20193;-47
2021/01/01 03:24:55;;;;;;;1.80;1.48;;;;;;;;;;5064980;28;20581;-47
2021/01/01 03:27:21;;;;;;;1.70;1.60;;;;;;;;;;5074468;28;20699;-47
2021/01/01 03:29:47;;;;;;;1.58;1.48;;;;;;;;;;5072696;28;20186;-47
2021/01/01 03:32:13;;;;;;;2.33;1.40;;;;;;;;;;5056724;28;20181;-46
2021/01/01 03:34:39;;;;;;;1.88;1.52;;;;;;;;;;5061466;28;20532;-47
2021/01/01 03:37:05;;;;;;;1.48;1.17;;;;;;;;;;5074365;28;20285;-47
2021/01/01 03:39:31;;;;;;;2.03;1.48;;;;;;;;;;5062541;28;20274;-47
2021/01/01 03:41:57;;;;;;;2.05;1.30;;;;;;;;;;5054172;28;20186;-47
2021/01/01 03:44:23;;;;;;;1.23;1.10;;;;;;;;;;5058532;28;20244;-47
2021/01/01 03:46:49;;;;;;;1.40;1.30;;;;;;;;;;5061328;28;20218;-47
2021/01/01 03:49:15;;;;;;;2.53;1.58;;;;;;;;;;5074032;28;20213;-47
2021/01/01 03:51:41;;;;;;;1.52;1.30;;;;;;;;;;5074009;28;20205;-47
2021/01/01 03:54:07;;;;;;;1.17;1.13;;;;;;;;;;5073255;28;20451;-47
2021/01/01 03:56:33;;;;;;;2.28;1.50;;;;;;;;;;5073827;28;20213;-47
2021/01/01 03:58:59;;;;;;;1.20;1.10;;;;;;;;;;5073694;28;20178;-47
2021/01/01 04:01:25;;;;;;;2.13;1.20;;;;;;;;;;5072646;28;20237;-47
2021/01/01 04:03:51;;;;;;;2.35;1.30;;;;;;;;;;5074443;28;20680;-46
2021/01/01 04:06:17;;;;;;;1.67;1.35;;;;;;;;;;5069176;28;20616;-47
2021/01/01 04:08:43;;;;;;;1.30;1.20;;;;;;;;;;5072862;28;20235;-47
2021/01/01 04:11:09;;;;;;;2.45;1.23;;;;;;;;;;5064481;28;20189;-47
2021/01/01 04:13:35;;;;;;;1.88;1.42;;;;;;;;;;5053981;28;20211;-47
2021/01/01 04:16:01;;;;;;;1.55;1.45;;;;;;;;;;5070261;28;20205;-46
2021/01/01 04:18:27;;;;;;;1.40;1.30;;;;;;;;;;5072683;28;20193;-47
2021/01/01 04:20:53;;;;;;;1.25;1.15;;;;;;;;;;5072411;28;20199;-47
2021/01/01 04:23:19;;;;;;;1.60;1.20;;;;;;;;;;5073593;28;20190;-47
2021/01/01 04:25:47;;;;;;;1.40;1.30;;;;;;;;;;5072121;28;20275;-47
2021/01/01 04:28:13;;;;;;;1.27;1.20;;;;;;;;;;5073972;28;20203;-47
2021/01/01 04:30:39;;;;;;;1.15;1.10;;;;;;;;;;5058811;28;20187;-47
2021/01/01 04:33:05;;;;;;;1.33;1.23;;;;;;;;;;5074053;28;20277;-47
2021/01/01 04:35:31;;;;;;;1.55;1.45;;;;;;;;;;5073799;28;20550;-47
2021/01/01 04:37:57;;;;;;;1.33;1.23;;;;;;;;;;5073813;28;20179;-47
2021/01/01 04:40:23;;;;;;;1.38;1.27;;;;;;;;;;5056268;28;20187;-47
2021/01/01 04:42:49;;;;;;;1.48;1.38;;;;;;;;;;5058063;28;20187;-46
2021/01/01 04:45:16;;;;;;;1.58;1.48;;;;;;;;;;5071026;28;20205;-47
2021/01/01 04:47:42;;;;;;;1.23;1.13;;;;;;;;;;5061934;28;20209;-47
2021/01/01 04:50:08;;;;;;;1.30;1.20;;;;;;;;;;5071992;28;20495;-47
2021/01/01 04:52:34;;;;;;;0.98;0.98;;;;;;;;;;5072879;28;20284;-46
2021/01/01 04:55:00;;;;;;;1.52;1.42;;;;;;;;;;5072899;28;20174;-47
2021/01/01 04:57:27;;;;;;;2.40;1.20;;;;;;;;;;5068503;28;20504;-48
2021/01/01 04:59:53;;;;;;;1.40;1.30;;;;;;;;;;5060145;28;20183;-47
2021/01/01 05:02:19;;;;;;;1.15;1.08;;;;;;;;;;5071243;28;20179;-47
2021/01/01 05:04:49;;;;;;;2.17;1.20;;;;;;;;;;5072475;28;20345;-47
2021/01/01 05:07:18;;;;;;;1.10;1.10;;;;;;;;;;5073410;28;20255;-47
2021/01/01 05:09:44;;;;;;;1.40;1.30;;;;;;;;;;5072563;28;20204;-47
2021/01/01 05:12:11;;;;;;;1.17;1.08;;;;;;;;;;5073525;28;20443;-47
2021/01/01 05:14:37;;;;;;;1.70;1.30;;;;;;;;;;5072271;28;20214;-47
2021/01/01 05:17:04;;;;;;;1.15;1.08;;;;;;;;;;5068371;28;20553;-47
2021/01/01 05:19:40;;;;;;;1.83;1.40;;;;;;;;;;5072236;28;20190;-47
2021/01/01 05:22:09;;;;;;;1.17;1.10;;;;;;;;;;5073206;28;20532;-47
2021/01/01 05:24:39;;;;;;;1.23;1.13;;;;;;;;;;5076073;28;20190;-47
2021/01/01 05:27:12;;;;;;;1.10;1.00;;;;;;;;;;5069581;28;20225;-47
2021/01/01 05:29:59;;;;;;;1.35;1.25;;;;;;;;;;5076346;28;20213;-47
2021/01/01 05:32:28;;;;;;;1.38;1.27;;;;;;;;;;5059695;28;20677;-47
2021/01/01 05:34:54;;;;;;;1.05;1.05;;;;;;;;;;5077722;28;20240;-47
2021/01/01 05:37:26;;;;;;;1.05;1.00;;;;;;;;;;5077320;28;20210;-47
2021/01/01 05:39:59;;;;;;;1.02;1.02;;;;;;;;;;5072736;28;20187;-47
2021/01/01 05:42:25;;;;;;;1.30;1.23;;;;;;;;;;5076819;28;20248;-47
2021/01/01 05:44:52;;;;;;;1.27;1.17;;;;;;;;;;5076510;28;20190;-47
2021/01/01 05:47:18;;;;;;;1.15;1.00;;;;;;;;;;5075908;28;20178;-47
2021/01/01 05:49:44;;;;;;;1.30;1.20;;;;;;;;;;5075828;28;20190;-47
2021/01/01 05:52:10;;;;;;;1.15;1.05;;;;;;;;;;5072088;28;20255;-47
2021/01/01 05:54:36;;;;;;;1.10;1.10;;;;;;;;;;5076026;28;20217;-47
2021/01/01 05:57:03;;;;;;;2.13;1.20;;;;;;;;;;5076416;28;20198;-47
2021/01/01 05:59:30;;;;;;;1.35;1.25;;;;;;;;;;5067677;28;20227;-48
2021/01/01 06:01:56;;;;;;;1.00;0.90;;;;;;;;;;5076790;28;20568;-47
2021/01/01 06:04:27;;;;;;;1.10;1.10;;;;;;;;;;5071712;28;20275;-47
2021/01/01 06:06:54;;;;;;;0.90;0.90;;;;;;;;;;5063821;28;20296;-47
2021/01/01 06:09:20;;;;;;;1.25;1.02;;;;;;;;;;5076235;28;20476;-47
2021/01/01 06:12:02;;;;;;;1.10;1.10;;;;;;;;;;5076181;28;20550;-47
2021/01/01 06:14:32;;;;;;;1.05;0.98;;;;;;;;;;5075506;28;20217;-47
2021/01/01 06:17:02;;;;;;;1.33;1.00;;;;;;;;;;5075493;28;20187;-47
2021/01/01 06:19:42;;;;;;;1.30;1.20;;;;;;;;;;5076330;28;20178;-47
2021/01/01 06:22:12;;;;;;;1.35;1.20;;;;;;;;;;5075853;28;20186;-47
2021/01/01 06:24:42;;;;;;;2.05;1.10;;;;;;;;;;5075290;28;20265;-47
2021/01/01 06:27:08;;;;;;;1.25;1.17;;;;;;;;;;5074668;28;20244;-47
2021/01/01 06:29:36;;;;;;;1.20;1.10;;;;;;;;;;5075981;28;20193;-47
2021/01/01 06:32:04;;;;;;;1.20;1.10;;;;;;;;;;5075564;28;20210;-47
2021/01/01 06:34:30;;;;;;;1.10;1.10;;;;;;;;;;5073216;28;20828;-47
2021/01/01 06:36:57;;;;;;;0.98;0.98;;;;;;;;;;5077132;28;20178;-47
2021/01/01 06:39:45;;;;;;;1.30;1.20;;;;;;;;;;5076314;28;20206;-47
2021/01/01 06:42:11;;;;;;;1.05;1.00;;;;;;;;;;5075729;28;20181;-47
2021/01/01 06:44:38;;;;;;;0.82;0.82;;;;;;;;;;5074996;28;20193;-47
2021/01/01 06:47:06;;;;;;;1.02;1.02;;;;;;;;;;5073632;28;20457;-46
2021/01/01 06:49:36;;;;;;;1.02;1.00;;;;;;;;;;5075257;28;20516;-47
2021/01/01 06:52:08;;;;;;;0.90;0.90;;;;;;;;;;5058876;28;20292;-46
2021/01/01 06:54:34;;;;;;;1.30;1.20;;;;;;;;;;5070461;28;20202;-47
2021/01/01 06:57:04;;;;;;;1.00;0.95;;;;;;;;;;5073282;28;20252;-47
2021/01/01 06:59:33;;;;;;;1.10;1.00;;;;;;;;;;5075281;28;20174;-46
2021/01/01 07:02:17;;;;;;;1.20;1.10;;;;;;;;;;5059213;28;20179;-47
2021/01/01 07:04:49;;;;;;;1.00;1.00;;;;;;;;;;5070466;28;20232;-47
2021/01/01 07:07:34;;;;;;;1.15;1.05;;;;;;;;;;5072535;28;20186;-47
2021/01/01 07:10:00;;;;;;;1.00;1.00;;;;;;;;;;5075270;28;20542;-47
2021/01/01 07:12:26;;;;;;;1.20;1.10;;;;;;;;;;5075292;28;20186;-47
2021/01/01 07:14:52;;;;;;;1.05;1.05;;;;;;;;;;5074743;28;20198;-47
2021/01/01 07:17:18;;;;;;;1.17;1.17;;;;;;;;;;5072852;28;20455;-47
2021/01/01 07:19:44;;;;;;;1.13;1.02;;;;;;;;;;5074458;28;20178;-47
2021/01/01 07:22:10;;;;;;;0.90;0.90;;;;;;;;;;5057459;28;20183;-47
2021/01/01 07:24:36;;;;;;;0.85;0.85;;;;;;;;;;5069740;28;20186;-47
2021/01/01 07:27:03;;;;;;;1.15;0.90;;;;;;;;;;5071380;28;20577;-47
2021/01/01 07:29:29;;;;;;;0.90;0.90;;;;;;;;;;5074752;28;20197;-47
2021/01/01 07:31:56;;;;;;;1.15;1.00;;;;;;;;;;5059108;28;20195;-47
2021/01/01 07:34:22;;;;;;;1.23;1.13;;;;;;;;;;5067774;28;20210;-47
2021/01/01 07:36:51;;;;;;;1.00;1.00;;;;;;;;;;5061025;28;20576;-47
2021/01/01 07:39:17;;;;;;;1.08;0.80;;;;;;;;;;5054892;28;20800;-47
2021/01/01 07:41:43;;;;;;;0.88;0.88;;;;;;;;;;5054719;28;20228;-47
2021/01/01 07:44:09;;;;;;;1.00;0.90;;;;;;;;;;5065790;28;20192;-47
2021/01/01 07:46:35;;;;;;;1.02;1.02;;;;;;;;;;5064301;28;20210;-47
2021/01/01 07:49:02;;;;;;;0.80;0.80;;;;;;;;;;5074809;28;20174;-47
2021/01/01 07:51:28;;;;;;;2.13;1.05;;;;;;;;;;5061643;28;20448;-47
2021/01/01 07:54:01;;;;;;;0.82;0.82;;;;;;;;;;5063062;28;20316;-47
2021/01/01 07:56:27;;;;;;;0.90;0.90;;;;;;;;;;5068642;28;20190;-47
2021/01/01 07:58:54;;;;;;;0.90;0.90;;;;;;;;;;5074626;28;20620;-47
2021/01/01 08:01:21;;;;;;;1.15;0.98;;;;;;;;;;5074217;28;20612;-47
2021/01/01 08:03:48;;;;;;;0.93;0.93;;;;;;;;;;5073817;28;20206;-47
2021/01/01 08:06:14;;;;;;;1.00;1.00;;;;;;;;;;5070362;28;20315;-47
2021/01/01 08:08:40;;;;;;;0.80;0.80;;;;;;;;;;5074198;28;20182;-47
2021/01/01 08:11:07;;;;;;;1.00;1.00;;;;;;;;;;5056785;28;20417;-47
2021/01/01 08:13:34;;;;;;;0.90;0.90;;;;;;;;;;5059196;28;20887;-47
2021/01/01 08:16:15;;;;;;;0.80;0.80;;;;;;;;;;5068009;28;20443;-47
2021/01/01 08:18:42;;;;;;;0.90;0.90;;;;;;;;;;5069643;28;20184;-47
2021/01/01 08:21:08;;;;;;;1.10;1.05;;;;;;;;;;5064453;28;20550;-47
2021/01/01 08:23:46;;;;;;;1.00;1.00;;;;;;;;;;5059048;28;20179;-47
2021/01/01 08:26:12;;;;;;;0.75;0.75;;;;;;;;;;5071295;28;20324;-47
2021/01/01 08:28:39;;;;;;;0.90;0.90;;;;;;;;;;5073828;28;20559;-47
2021/01/01 08:31:06;;;;;;;1.10;1.02;;;;;;;;;;5064945;28;20191;-47
2021/01/01 08:33:36;;;;;;;1.00;1.00;;;;;;;;;;5058018;28;20677;-47
2021/01/01 08:36:02;;;;;;;1.20;1.20;;;;;;;;;;5066183;28;20187;-47
2021/01/01 08:38:29;;;;;;;1.17;1.08;;;;;;;;;;5053561;28;20182;-47
2021/01/01 08:40:55;;;;;;;1.20;1.10;;;;;;;;;;5054160;28;20191;-47
2021/01/01 08:43:22;;;;;;;1.10;1.00;;;;;;;;;;5060981;28;20492;-47
2021/01/01 08:45:48;;;;;;;1.98;1.10;;;;;;;;;;5069322;28;20205;-47
2021/01/01 08:48:14;;;;;;;1.20;1.10;;;;;;;;;;5069460;28;20265;-47
2021/01/01 08:50:45;;;;;;;1.00;0.98;;;;;;;;;;5052951;28;20517;-47
2021/01/01 08:53:11;;;;;;;1.20;1.10;;;;;;;;;;5054743;28;20195;-47
2021/01/01 08:55:37;;;;;;;1.00;1.00;;;;;;;;;;5071207;28;20731;-47
2021/01/01 08:58:16;;;;;;;1.15;1.10;;;;;;;;;;5053228;28;20577;-47
2021/01/01 09:00:46;;;;;;;1.40;1.30;;;;;;;;;;5053532;28;20183;-47
2021/01/01 09:03:18;;;;;;;1.50;1.00;;;;;;;;;;5054543;28;20570;-47
2021/01/01 09:05:45;;;;;;;1.02;1.02;;;;;;;;;;5070045;28;20190;-47
2021/01/01 09:08:17;;;;;;;1.17;1.10;;;;;;;;;;5053739;28;20258;-47
2021/01/01 09:10:44;;;;;;;1.10;1.00;;;;;;;;;;5052876;28;21153;-47
2021/01/01 09:13:32;;;;;;;1.15;1.05;;;;;;;;;;5067777;28;20289;-46
2021/01/01 09:16:01;;;;;;;1.20;1.10;;;;;;;;;;5060616;28;20216;-47
2021/01/01 09:18:28;;;;;;;1.33;1.02;;;;;;;;;;5072285;28;20186;-47
2021/01/01 09:21:08;;;;;;;1.58;0.90;;;;;;;;;;5065752;28;20202;-47
2021/01/01 09:23:34;;;;;;;1.67;1.00;;;;;;;;;;5069685;28;20222;-47
2021/01/01 09:26:00;;;;;;;1.50;1.20;;;;;;;;;;5070396;28;20553;-47
2021/01/01 09:28:26;;;;;;;1.20;1.10;;;;;;;;;;5061181;28;20190;-47
2021/01/01 09:30:52;;;;;;;0.90;0.90;;;;;;;;;;5068443;28;20183;-47
2021/01/01 09:33:20;;;;;;;1.30;1.20;;;;;;;;;;5071562;28;20247;-47
2021/01/01 09:35:46;;;;;;;1.48;1.20;;;;;;;;;;5067220;28;20171;-47
2021/01/01 09:38:12;;;;;;;1.80;1.27;;;;;;;;;;5058616;28;20199;-47
2021/01/01 09:40:38;;;;;;;2.45;1.05;;;;;;;;;;5053023;28;20194;-46
2021/01/01 09:43:05;;;;;;;1.08;1.00;;;;;;;;;;5065812;28;20179;-47
2021/01/01 09:45:31;;;;;;;1.20;1.00;;;;;;;;;;5071873;28;20189;-47
2021/01/01 09:47:57;;;;;;;1.02;1.00;;;;;;;;;;5071517;28;20221;-47
2021/01/01 09:50:23;;;;;;;2.78;1.20;;;;;;;;;;5072085;28;20190;-47
2021/01/01 09:52:49;;;;;;;3.10;1.25;;;;;;;;;;5072756;28;20210;-47
2021/01/01 09:55:15;;;;;;;3.38;1.10;;;;;;;;;;5071779;28;20584;-47
2021/01/01 09:57:41;;;;;;;1.15;1.08;;;;;;;;;;5059868;28;20217;-47
2021/01/01 10:00:12;;;;;;;1.42;1.33;;;;;;;;;;5072006;28;20261;-47
2021/01/01 10:02:38;;;;;;;3.78;1.20;;;;;;;;;;5061058;28;20626;-47
2021/01/01 10:05:04;;;;;;;1.10;1.08;;;;;;;;;;5071797;28;20577;-47
2021/01/01 10:07:30;;;;;;;1.30;1.10;;;;;;;;;;5068882;28;20204;-47
2021/01/01 10:09:57;;;;;;;3.85;1.20;;;;;;;;;;5075324;28;20265;-47
2021/01/01 10:12:23;;;;;;;1.35;1.10;;;;;;;;;;5076418;28;20257;-47
2021/01/01 10:14:54;;;;;;;2.38;1.20;;;;;;;;;;5075136;28;20311;-46
2021/01/01 10:17:21;;;;;;;2.75;1.20;;;;;;;;;;5073982;28;20197;-47
2021/01/01 10:19:47;;;;;;;5.57;1.52;;;;;;;;;;5075279;28;20174;-47
2021/01/01 10:22:13;;;;;;;7.50;1.85;;;;;;;;;;5075770;28;20182;-47
2021/01/01 10:24:39;;;;;;;8.38;1.52;;;;;;;;;;5075893;28;20664;-45
2021/01/01 10:27:05;;;;;;;3.75;1.52;;;;;;;;;;5065529;28;20320;-47
2021/01/01 10:29:31;;;;;;;5.82;1.55;;;;;;;;;;5064942;28;20184;-47
2021/01/01 10:32:04;;;;;;;4.00;1.70;;;;;;;;;;5075900;28;20848;-47
2021/01/01 10:34:30;;;;;;;5.78;1.48;;;;;;;;;;5075505;28;20214;-47
2021/01/01 10:36:56;;;;;;;4.70;1.70;;;;;;;;;;5069771;28;20213;-47
2021/01/01 10:39:22;;;;;;;5.53;1.80;;;;;;;;;;5076306;28;20175;-47
2021/01/01 10:41:49;;;;;;;6.25;1.95;;;;;;;;;;5075378;28;20232;-47
2021/01/01 10:44:15;;;;;;;9.65;1.80;;;;;;;;;;5075888;28;20170;-47
2021/01/01 10:46:41;;;;;;;4.40;1.63;;;;;;;;;;5073643;28;20265;-47
2021/01/01 10:49:08;;;;;;;3.22;1.88;;;;;;;;;;5064875;28;20183;-47
2021/01/01 10:51:34;;;;;;;6.25;1.80;;;;;;;;;;5068053;28;20236;-47
2021/01/01 10:54:00;;;;;;;4.35;1.73;;;;;;;;;;5075543;28;20206;-47
2021/01/01 10:56:28;;;;;;;4.88;1.80;;;;;;;;;;5068075;28;20187;-47
2021/01/01 10:58:54;;;;;;;5.10;1.63;;;;;;;;;;5076054;28;20170;-47
2021/01/01 11:01:20;;;;;;;2.97;1.70;;;;;;;;;;5075211;28;20256;-47
2021/01/01 11:03:47;;;;;;;3.97;1.60;;;;;;;;;;5070081;28;20329;-46
2021/01/01 11:06:13;;;;;;;2.17;1.55;;;;;;;;;;5072774;28;20539;-47
2021/01/01 11:08:43;;;;;;;7.10;1.83;;;;;;;;;;5074648;28;20298;-47
2021/01/01 11:11:13;;;;;;;2.45;1.60;;;;;;;;;;5065736;28;20191;-47
2021/01/01 11:14:22;;;;;;;4.72;1.60;;;;;;;;;;5073576;28;20199;-47
2021/01/01 12:25:23;;;;;;;1.80;1.67;;;;;;;;;;5072598;28;20190;-46
2021/01/01 12:27:50;;;;;;;3.05;2.10;;;;;;;;;;5073948;28;20178;-47
2021/01/01 12:30:16;;;;;;;3.72;1.65;;;;;;;;;;5073263;28;20189;-47
2021/01/01 12:32:43;;;;;;;1.85;1.70;;;;;;;;;;5070757;28;20204;-47
2021/01/01 12:35:11;;;;;;;4.13;1.75;;;;;;;;;;5069865;28;20217;-46
2021/01/01 12:37:38;;;;;;;3.13;1.80;;;;;;;;;;5068754;28;20201;-47
2021/01/01 12:40:04;;;;;;;1.67;1.55;;;;;;;;;;5073476;28;20195;-46
2021/01/01 12:42:30;;;;;;;3.22;1.70;;;;;;;;;;5053444;28;20290;-46
2021/01/01 12:44:56;;;;;;;1.83;1.60;;;;;;;;;;5072234;28;20190;-46
2021/01/01 12:47:22;;;;;;;2.97;1.92;;;;;;;;;;5069344;28;20190;-47
2021/01/01 12:49:48;;;;;;;4.55;2.75;;;;;;;;;;5060774;28;20563;-47
2021/01/01 12:52:14;;;;;;;3.85;3.08;;;;;;;;;;5071767;28;20197;-46
2021/01/01 12:54:40;;;;;;;2.85;2.55;;;;;;;;;;5056766;28;20281;-48
2021/01/01 12:57:06;;;;;;;5.00;2.72;;;;;;;;;;5072131;28;20190;-46
2021/01/01 12:59:32;;;;;;;8.13;3.20;;;;;;;;;;5073493;28;20478;-49
2021/01/01 13:01:59;;;;;;;3.30;2.83;;;;;;;;;;5067926;28;20171;-45
2021/01/01 13:04:25;;;;;;;4.85;2.85;;;;;;;;;;5064658;28;20308;-45
2021/01/01 13:06:51;;;;;;;2.92;2.70;;;;;;;;;;5072687;28;20221;-45
2021/01/01 13:09:18;;;;;;;3.45;2.30;;;;;;;;;;5073887;28;20724;-45
2021/01/01 13:11:47;;;;;;;4.97;2.42;;;;;;;;;;5060188;28;20191;-48
2021/01/01 13:14:13;;;;;;;2.22;2.03;;;;;;;;;;5066131;28;20216;-47
2021/01/01 13:16:41;;;;;;;2.60;2.40;;;;;;;;;;5058514;28;20452;-45
2021/01/01 13:19:07;;;;;;;2.35;2.00;;;;;;;;;;5073000;28;20541;-44
2021/01/01 13:21:34;;;;;;;2.45;2.25;;;;;;;;;;5072145;28;20259;-46
2021/01/01 13:24:01;;;;;;;2.20;2.00;;;;;;;;;;5065152;28;20191;-45
2021/01/01 13:26:27;;;;;;;2.15;1.95;;;;;;;;;;5060306;28;20179;-47
2021/01/01 13:28:54;;;;;;;2.20;2.00;;;;;;;;;;5053361;28;20231;-46
2021/01/01 13:31:21;;;;;;;2.08;1.90;;;;;;;;;;5053449;28;20206;-45
2021/01/01 13:33:49;;;;;;;2.10;1.77;;;;;;;;;;5061470;28;20202;-46
2021/01/01 13:36:18;;;;;;;2.80;1.90;;;;;;;;;;5066828;28;20190;-45
2021/01/01 13:38:45;;;;;;;1.75;1.58;;;;;;;;;;5073019;28;20179;-46
2021/01/01 13:41:13;;;;;;;4.75;1.70;;;;;;;;;;5063131;28;20210;-46
2021/01/01 13:43:40;;;;;;;3.13;1.90;;;;;;;;;;5062791;28;20269;-46
2021/01/01 13:46:06;;;;;;;1.92;1.58;;;;;;;;;;5072175;28;20178;-46
2021/01/01 13:48:32;;;;;;;1.60;1.50;;;;;;;;;;5075980;28;20211;-47
2021/01/01 13:50:58;;;;;;;3.58;1.65;;;;;;;;;;5076977;28;20175;-44
2021/01/01 13:53:24;;;;;;;2.63;1.60;;;;;;;;;;5076897;28;20562;-46
2021/01/01 13:55:50;;;;;;;3.10;1.73;;;;;;;;;;5075061;28;20262;-46
2021/01/01 13:58:18;;;;;;;1.67;1.58;;;;;;;;;;5076554;28;20193;-46
2021/01/01 14:00:44;;;;;;;1.35;1.25;;;;;;;;;;5076659;28;20599;-47
2021/01/01 14:03:11;;;;;;;1.40;1.30;;;;;;;;;;5073567;28;20216;-45
2021/01/01 14:05:37;;;;;;;1.70;1.42;;;;;;;;;;5066805;28;20442;-44
2021/01/01 14:08:03;;;;;;;2.20;1.33;;;;;;;;;;5056869;28;20222;-46
2021/01/01 14:10:29;;;;;;;1.42;1.33;;;;;;;;;;5057477;28;20892;-46
2021/01/01 14:12:55;;;;;;;1.63;1.52;;;;;;;;;;5057502;28;20210;-45
2021/01/01 14:15:21;;;;;;;2.35;1.30;;;;;;;;;;5073089;28;20206;-45
2021/01/01 14:17:47;;;;;;;1.48;1.38;;;;;;;;;;5065267;28;20251;-46
2021/01/01 14:20:14;;;;;;;2.30;1.30;;;;;;;;;;5076109;28;20186;-45
2021/01/01 14:22:40;;;;;;;2.53;1.48;;;;;;;;;;5074755;28;20190;-46
2021/01/01 14:25:06;;;;;;;1.20;1.20;;;;;;;;;;5074126;28;20234;-45
2021/01/01 14:27:32;;;;;;;1.35;1.10;;;;;;;;;;5079575;28;20218;-46
2021/01/01 14:29:58;;;;;;;4.10;1.20;;;;;;;;;;5076182;28;20620;-46
2021/01/01 14:32:24;;;;;;;1.10;1.10;;;;;;;;;;5076668;28;20562;-46
2021/01/01 14:34:52;;;;;;;1.20;1.20;;;;;;;;;;5074022;28;20206;-45
2021/01/01 14:37:18;;;;;;;3.05;1.30;;;;;;;;;;5075464;28;20221;-45
2021/01/01 14:39:44;;;;;;;2.45;1.38;;;;;;;;;;5075818;28;20179;-44
2021/01/01 14:42:11;;;;;;;1.33;1.02;;;;;;;;;;5072466;28;20185;-45
2021/01/01 14:44:37;;;;;;;1.55;1.45;;;;;;;;;;5073739;28;20201;-47
2021/01/01 14:47:02;;;;;;;2.38;1.20;;;;;;;;;;5066759;28;20649;-47
2021/01/01 14:49:28;;;;;;;2.38;1.30;;;;;;;;;;5075289;28;20232;-48
2021/01/01 14:51:54;;;;;;;4.63;1.38;;;;;;;;;;5075974;28;20196;-48
2021/01/01 14:54:21;;;;;;;14.07;3.60;;;;;;;;;;5067166;28;20522;-46
2021/01/01 14:56:47;;;;;;;23.15;6.07;;;;;;;;;;5067624;28;20191;-47
2021/01/01 14:59:13;;;;;;;22.70;6.03;;;;;;;;;;5085684;28;20240;-47
2021/01/01 15:01:39;;;;;;;20.38;5.75;;;;;;;;;;5067361;28;20206;-46
2021/01/01 15:04:05;;;;;;;22.85;6.63;;;;;;;;;;5067094;28;20222;-49
2021/01/01 15:06:31;;;;;;;24.98;6.95;;;;;;;;;;5075365;28;20182;-47
2021/01/01 15:08:57;;;;;;;24.50;7.82;;;;;;;;;;5075557;28;20233;-47
2021/01/01 15:11:24;;;;;;;26.42;7.65;;;;;;;;;;5073274;28;20562;-48
2021/01/01 15:13:50;;;;;;;25.65;8.88;;;;;;;;;;5068133;28;20685;-47
2021/01/01 15:16:16;;;;;;;31.38;8.13;;;;;;;;;;5070690;28;20185;-47
2021/01/01 15:18:43;;;;;;;33.20;8.32;;;;;;;;;;5074356;28;20175;-47
2021/01/01 15:21:09;;;;;;;42.65;9.52;;;;;;;;;;5074172;28;20210;-48
2021/01/01 15:23:38;;;;;;;42.40;11.15;;;;;;;;;;5073083;28;20211;-49
2021/01/01 15:26:04;;;;;;;40.10;11.38;;;;;;;;;;5074764;28;20273;-48
2021/01/01 15:28:30;;;;;;;33.15;9.55;;;;;;;;;;5074881;28;20274;-49
2021/01/01 15:30:56;;;;;;;28.63;9.13;;;;;;;;;;5075025;28;20190;-48
2021/01/01 15:33:22;;;;;;;36.17;9.38;;;;;;;;;;5074111;28;20241;-49
2021/01/01 15:35:48;;;;;;;34.83;10.30;;;;;;;;;;5066728;28;20262;-48
2021/01/01 15:38:14;;;;;;;30.55;8.85;;;;;;;;;;5054603;28;20201;-49
2021/01/01 15:40:40;;;;;;;33.10;8.68;;;;;;;;;;5054890;28;20503;-50
2021/01/01 15:43:06;;;;;;;23.92;7.65;;;;;;;;;;5070298;28;20194;-48
2021/01/01 15:45:32;;;;;;;24.42;8.27;;;;;;;;;;5069167;28;20187;-50
2021/01/01 15:47:58;;;;;;;22.17;7.00;;;;;;;;;;5065756;28;20186;-50
2021/01/01 15:50:24;;;;;;;22.67;7.70;;;;;;;;;;5070358;28;20195;-49
2021/01/01 15:52:50;;;;;;;28.08;7.68;;;;;;;;;;5067996;28;20191;-49